Terminal Aerodrome Forecast
Issued by NWS

Home | Current Version | Previous Version | Text Only | Print | Product List | Glossary On
Versions: 1 2 3 4 5 6 7 8 9 10 11 12 13 14 15 16 17 18 19 20 21 22 23 24
000
FTUS44 KLIX 211900 AAA
TAFHUM
TAF AMD
KHUM 211914Z 2119/2218 18005KT P6SM VCSH SCT035
      TEMPO 2119/2121 VRB10KT 3SM TSRA BKN035CB
     FM220100 00000KT P6SM SCT150
     FM221500 VRB04KT P6SM FEW030 SCT250=

USA.gov is the U.S. government's official web portal to all federal, state and local government web resources and services.